Perrysburg, Ohio
Current Conditions -  °F | °C
As of 3:53 AM on Sunday 23 Nov 2014 (Local Time) from KTDZ Reporting Station
Light Rain Light Rain  
Wind Chill: 42°   Ceiling: 7500
Heat Index: 48°   Visibility: 9mi
Dew Point: 41°   Wind: 14mph
Humidity: 77%   Direction: 210°SSW
Pressure: 29.99"   Gusts: NA
Location:  41.56°N, 83.63°W
Report Text: KTDZ 230853Z AUTO 21012KT 9SM -RA FEW060 OVC075 09/05 A2999 RMK AO2 RAB06 SLP156 P0005 60005 T00890050 56002 TSNO
Loading
Personal Weather Stations






























Interactive Weather Map New forecast layout! Learn more

10-Day Weather Forecast

Advertisements
Track Severe Weather on mobile